sensor_id;sensor_type;location;lat;lon;timestamp;P1;durP1;ratioP1;P2;durP2;ratioP2
23310;SDS011;11828;51.508;18.118;2022-08-03T00:00:45;12.38;;;9.75;;
23310;SDS011;11828;51.508;18.118;2022-08-03T00:03:11;11.45;;;9.15;;
23310;SDS011;11828;51.508;18.118;2022-08-03T00:05:37;11.82;;;8.40;;
23310;SDS011;11828;51.508;18.118;2022-08-03T00:08:04;10.13;;;7.82;;
23310;SDS011;11828;51.508;18.118;2022-08-03T00:10:31;11.30;;;7.60;;
23310;SDS011;11828;51.508;18.118;2022-08-03T00:12:57;10.13;;;7.45;;
23310;SDS011;11828;51.508;18.118;2022-08-03T00:15:23;7.53;;;6.72;;
23310;SDS011;11828;51.508;18.118;2022-08-03T00:17:49;8.05;;;6.38;;
23310;SDS011;11828;51.508;18.118;2022-08-03T00:20:16;7.60;;;6.18;;
23310;SDS011;11828;51.508;18.118;2022-08-03T00:22:42;8.48;;;6.60;;
23310;SDS011;11828;51.508;18.118;2022-08-03T00:25:08;8.15;;;6.38;;
23310;SDS011;11828;51.508;18.118;2022-08-03T00:27:34;9.40;;;6.88;;
23310;SDS011;11828;51.508;18.118;2022-08-03T00:30:00;8.18;;;6.63;;
23310;SDS011;11828;51.508;18.118;2022-08-03T00:32:26;8.40;;;7.50;;
23310;SDS011;11828;51.508;18.118;2022-08-03T00:34:52;8.68;;;7.28;;
23310;SDS011;11828;51.508;18.118;2022-08-03T00:37:18;8.27;;;7.10;;
23310;SDS011;11828;51.508;18.118;2022-08-03T00:39:44;11.80;;;7.78;;
23310;SDS011;11828;51.508;18.118;2022-08-03T00:42:11;9.40;;;7.60;;
23310;SDS011;11828;51.508;18.118;2022-08-03T00:44:38;10.38;;;6.82;;
23310;SDS011;11828;51.508;18.118;2022-08-03T00:47:05;8.80;;;7.30;;
23310;SDS011;11828;51.508;18.118;2022-08-03T00:49:32;9.40;;;7.07;;
23310;SDS011;11828;51.508;18.118;2022-08-03T00:51:59;9.75;;;7.22;;
23310;SDS011;11828;51.508;18.118;2022-08-03T00:54:26;9.63;;;7.60;;
23310;SDS011;11828;51.508;18.118;2022-08-03T00:56:53;9.05;;;7.25;;
23310;SDS011;11828;51.508;18.118;2022-08-03T00:59:18;10.23;;;7.40;;
23310;SDS011;11828;51.508;18.118;2022-08-03T01:01:45;9.02;;;6.95;;
23310;SDS011;11828;51.508;18.118;2022-08-03T01:04:12;11.30;;;6.75;;
23310;SDS011;11828;51.508;18.118;2022-08-03T01:09:53;8.52;;;6.72;;
23310;SDS011;11828;51.508;18.118;2022-08-03T01:16:09;11.68;;;7.43;;
23310;SDS011;11828;51.508;18.118;2022-08-03T01:18:51;13.45;;;10.48;;
23310;SDS011;11828;51.508;18.118;2022-08-03T01:32:20;11.20;;;8.30;;
23310;SDS011;11828;51.508;18.118;2022-08-03T01:35:11;11.18;;;8.75;;
23310;SDS011;11828;51.508;18.118;2022-08-03T01:37:46;11.75;;;9.27;;
23310;SDS011;11828;51.508;18.118;2022-08-03T01:40:20;12.05;;;9.32;;
23310;SDS011;11828;51.508;18.118;2022-08-03T01:42:49;13.40;;;9.93;;
23310;SDS011;11828;51.508;18.118;2022-08-03T01:45:16;12.43;;;9.60;;
23310;SDS011;11828;51.508;18.118;2022-08-03T01:47:44;12.38;;;9.40;;
23310;SDS011;11828;51.508;18.118;2022-08-03T01:50:11;13.05;;;9.65;;
23310;SDS011;11828;51.508;18.118;2022-08-03T01:52:38;12.68;;;9.48;;
23310;SDS011;11828;51.508;18.118;2022-08-03T01:55:06;10.73;;;8.95;;
23310;SDS011;11828;51.508;18.118;2022-08-03T01:57:34;10.40;;;8.52;;
23310;SDS011;11828;51.508;18.118;2022-08-03T02:00:03;10.73;;;8.73;;
23310;SDS011;11828;51.508;18.118;2022-08-03T02:02:31;13.25;;;8.82;;
23310;SDS011;11828;51.508;18.118;2022-08-03T02:04:58;9.77;;;8.43;;
23310;SDS011;11828;51.508;18.118;2022-08-03T02:07:26;10.35;;;8.20;;
23310;SDS011;11828;51.508;18.118;2022-08-03T02:09:54;10.77;;;8.07;;
23310;SDS011;11828;51.508;18.118;2022-08-03T02:12:21;10.95;;;8.30;;
23310;SDS011;11828;51.508;18.118;2022-08-03T02:14:50;10.48;;;9.05;;
23310;SDS011;11828;51.508;18.118;2022-08-03T02:17:17;10.40;;;8.23;;
23310;SDS011;11828;51.508;18.118;2022-08-03T02:19:44;11.88;;;8.65;;
23310;SDS011;11828;51.508;18.118;2022-08-03T02:22:12;12.05;;;9.25;;
23310;SDS011;11828;51.508;18.118;2022-08-03T02:24:39;13.13;;;9.63;;
23310;SDS011;11828;51.508;18.118;2022-08-03T02:27:09;12.68;;;9.23;;
23310;SDS011;11828;51.508;18.118;2022-08-03T02:29:45;14.00;;;10.55;;
23310;SDS011;11828;51.508;18.118;2022-08-03T02:32:19;13.07;;;10.68;;
23310;SDS011;11828;51.508;18.118;2022-08-03T02:34:54;12.07;;;9.73;;
23310;SDS011;11828;51.508;18.118;2022-08-03T02:37:23;10.13;;;8.63;;
23310;SDS011;11828;51.508;18.118;2022-08-03T02:39:56;11.52;;;9.15;;
23310;SDS011;11828;51.508;18.118;2022-08-03T02:42:27;15.93;;;9.10;;
23310;SDS011;11828;51.508;18.118;2022-08-03T02:44:54;12.00;;;8.85;;
23310;SDS011;11828;51.508;18.118;2022-08-03T02:47:23;9.27;;;7.80;;
23310;SDS011;11828;51.508;18.118;2022-08-03T02:49:53;10.32;;;8.25;;
23310;SDS011;11828;51.508;18.118;2022-08-03T02:52:24;9.68;;;7.80;;
23310;SDS011;11828;51.508;18.118;2022-08-03T02:54:55;9.95;;;8.50;;
23310;SDS011;11828;51.508;18.118;2022-08-03T02:57:25;11.65;;;8.77;;
23310;SDS011;11828;51.508;18.118;2022-08-03T02:59:54;12.02;;;8.65;;
23310;SDS011;11828;51.508;18.118;2022-08-03T03:02:22;11.20;;;8.80;;
23310;SDS011;11828;51.508;18.118;2022-08-03T03:04:50;12.32;;;8.48;;
23310;SDS011;11828;51.508;18.118;2022-08-03T03:07:18;11.52;;;8.45;;
23310;SDS011;11828;51.508;18.118;2022-08-03T03:09:45;10.32;;;8.32;;
23310;SDS011;11828;51.508;18.118;2022-08-03T03:12:12;10.57;;;8.35;;
23310;SDS011;11828;51.508;18.118;2022-08-03T03:14:38;9.55;;;8.52;;
23310;SDS011;11828;51.508;18.118;2022-08-03T03:17:08;10.57;;;8.85;;
23310;SDS011;11828;51.508;18.118;2022-08-03T03:19:35;12.00;;;8.95;;
23310;SDS011;11828;51.508;18.118;2022-08-03T03:22:04;10.52;;;9.40;;
23310;SDS011;11828;51.508;18.118;2022-08-03T03:24:33;11.43;;;8.75;;
23310;SDS011;11828;51.508;18.118;2022-08-03T03:27:00;11.93;;;9.65;;
23310;SDS011;11828;51.508;18.118;2022-08-03T03:29:27;12.25;;;9.57;;
23310;SDS011;11828;51.508;18.118;2022-08-03T03:31:54;13.10;;;10.02;;
23310;SDS011;11828;51.508;18.118;2022-08-03T03:34:21;15.13;;;11.68;;
23310;SDS011;11828;51.508;18.118;2022-08-03T03:36:48;13.48;;;10.95;;
23310;SDS011;11828;51.508;18.118;2022-08-03T03:39:14;12.10;;;10.00;;
23310;SDS011;11828;51.508;18.118;2022-08-03T03:41:40;13.95;;;10.68;;
23310;SDS011;11828;51.508;18.118;2022-08-03T03:44:07;16.70;;;11.13;;
23310;SDS011;11828;51.508;18.118;2022-08-03T03:46:33;14.45;;;10.52;;
23310;SDS011;11828;51.508;18.118;2022-08-03T03:48:59;14.77;;;11.80;;
23310;SDS011;11828;51.508;18.118;2022-08-03T03:51:25;13.27;;;10.35;;
23310;SDS011;11828;51.508;18.118;2022-08-03T03:53:55;12.60;;;10.43;;
23310;SDS011;11828;51.508;18.118;2022-08-03T03:56:23;16.98;;;11.45;;
23310;SDS011;11828;51.508;18.118;2022-08-03T03:58:49;15.30;;;10.85;;
23310;SDS011;11828;51.508;18.118;2022-08-03T04:01:16;12.75;;;10.43;;
23310;SDS011;11828;51.508;18.118;2022-08-03T04:03:42;14.88;;;11.52;;
23310;SDS011;11828;51.508;18.118;2022-08-03T04:06:09;14.95;;;10.48;;
23310;SDS011;11828;51.508;18.118;2022-08-03T04:08:54;13.65;;;10.80;;
23310;SDS011;11828;51.508;18.118;2022-08-03T04:14:21;13.80;;;11.60;;
23310;SDS011;11828;51.508;18.118;2022-08-03T04:16:57;17.08;;;12.38;;
23310;SDS011;11828;51.508;18.118;2022-08-03T04:19:28;16.02;;;12.85;;
23310;SDS011;11828;51.508;18.118;2022-08-03T04:22:03;17.70;;;14.50;;
23310;SDS011;11828;51.508;18.118;2022-08-03T04:24:34;15.30;;;13.10;;
23310;SDS011;11828;51.508;18.118;2022-08-03T04:27:14;15.68;;;14.02;;
23310;SDS011;11828;51.508;18.118;2022-08-03T04:29:46;17.55;;;14.00;;
23310;SDS011;11828;51.508;18.118;2022-08-03T04:32:16;17.23;;;13.60;;
23310;SDS011;11828;51.508;18.118;2022-08-03T04:34:44;16.27;;;13.77;;
23310;SDS011;11828;51.508;18.118;2022-08-03T04:37:12;14.55;;;12.10;;
23310;SDS011;11828;51.508;18.118;2022-08-03T04:39:45;16.60;;;13.82;;
23310;SDS011;11828;51.508;18.118;2022-08-03T04:42:13;15.57;;;12.88;;
23310;SDS011;11828;51.508;18.118;2022-08-03T04:44:41;16.83;;;13.50;;
23310;SDS011;11828;51.508;18.118;2022-08-03T04:47:09;16.00;;;13.55;;
23310;SDS011;11828;51.508;18.118;2022-08-03T04:49:36;18.73;;;14.10;;
23310;SDS011;11828;51.508;18.118;2022-08-03T04:52:03;17.38;;;13.98;;
23310;SDS011;11828;51.508;18.118;2022-08-03T04:54:38;16.15;;;13.48;;
23310;SDS011;11828;51.508;18.118;2022-08-03T04:57:08;18.05;;;13.10;;
23310;SDS011;11828;51.508;18.118;2022-08-03T04:59:36;17.35;;;14.05;;
23310;SDS011;11828;51.508;18.118;2022-08-03T05:02:02;17.70;;;13.18;;
23310;SDS011;11828;51.508;18.118;2022-08-03T05:04:29;15.43;;;12.35;;
23310;SDS011;11828;51.508;18.118;2022-08-03T05:06:55;17.40;;;14.20;;
23310;SDS011;11828;51.508;18.118;2022-08-03T05:09:21;17.20;;;14.07;;
23310;SDS011;11828;51.508;18.118;2022-08-03T05:11:47;18.73;;;14.95;;
23310;SDS011;11828;51.508;18.118;2022-08-03T05:14:13;17.35;;;14.93;;
23310;SDS011;11828;51.508;18.118;2022-08-03T05:16:39;19.67;;;14.73;;
23310;SDS011;11828;51.508;18.118;2022-08-03T05:19:05;16.83;;;14.52;;
23310;SDS011;11828;51.508;18.118;2022-08-03T05:21:31;17.25;;;15.13;;
23310;SDS011;11828;51.508;18.118;2022-08-03T05:23:57;15.70;;;14.07;;
23310;SDS011;11828;51.508;18.118;2022-08-03T05:26:23;18.50;;;14.45;;
23310;SDS011;11828;51.508;18.118;2022-08-03T05:28:50;17.77;;;14.93;;
23310;SDS011;11828;51.508;18.118;2022-08-03T05:31:17;16.30;;;14.60;;
23310;SDS011;11828;51.508;18.118;2022-08-03T05:33:44;17.92;;;16.08;;
23310;SDS011;11828;51.508;18.118;2022-08-03T05:36:12;18.98;;;15.75;;
23310;SDS011;11828;51.508;18.118;2022-08-03T05:38:38;18.27;;;15.13;;
23310;SDS011;11828;51.508;18.118;2022-08-03T05:41:04;17.70;;;14.95;;
23310;SDS011;11828;51.508;18.118;2022-08-03T05:43:30;19.15;;;17.08;;
23310;SDS011;11828;51.508;18.118;2022-08-03T05:45:57;17.92;;;16.00;;
23310;SDS011;11828;51.508;18.118;2022-08-03T05:48:25;21.00;;;17.30;;
23310;SDS011;11828;51.508;18.118;2022-08-03T05:50:51;17.77;;;15.45;;
23310;SDS011;11828;51.508;18.118;2022-08-03T05:53:17;15.23;;;13.60;;
23310;SDS011;11828;51.508;18.118;2022-08-03T05:55:43;15.65;;;13.10;;
23310;SDS011;11828;51.508;18.118;2022-08-03T05:58:09;20.67;;;15.82;;
23310;SDS011;11828;51.508;18.118;2022-08-03T06:00:35;16.60;;;14.15;;
23310;SDS011;11828;51.508;18.118;2022-08-03T06:03:02;18.88;;;15.57;;
23310;SDS011;11828;51.508;18.118;2022-08-03T06:05:28;18.35;;;14.40;;
23310;SDS011;11828;51.508;18.118;2022-08-03T06:07:54;19.35;;;15.90;;
23310;SDS011;11828;51.508;18.118;2022-08-03T06:10:20;13.75;;;12.25;;
23310;SDS011;11828;51.508;18.118;2022-08-03T06:12:46;13.10;;;11.70;;
23310;SDS011;11828;51.508;18.118;2022-08-03T06:15:14;16.60;;;14.82;;
23310;SDS011;11828;51.508;18.118;2022-08-03T06:17:44;16.63;;;14.93;;
23310;SDS011;11828;51.508;18.118;2022-08-03T06:20:15;14.35;;;12.85;;
23310;SDS011;11828;51.508;18.118;2022-08-03T06:22:43;18.50;;;14.25;;
23310;SDS011;11828;51.508;18.118;2022-08-03T06:25:10;19.95;;;13.02;;
23310;SDS011;11828;51.508;18.118;2022-08-03T06:27:36;18.10;;;12.93;;
23310;SDS011;11828;51.508;18.118;2022-08-03T06:30:08;16.58;;;14.15;;
23310;SDS011;11828;51.508;18.118;2022-08-03T06:32:36;18.45;;;16.08;;
23310;SDS011;11828;51.508;18.118;2022-08-03T06:35:03;15.63;;;13.85;;
23310;SDS011;11828;51.508;18.118;2022-08-03T06:37:44;16.17;;;13.80;;
23310;SDS011;11828;51.508;18.118;2022-08-03T06:40:12;18.48;;;13.73;;
23310;SDS011;11828;51.508;18.118;2022-08-03T06:42:43;19.02;;;15.48;;
23310;SDS011;11828;51.508;18.118;2022-08-03T06:45:10;16.40;;;14.45;;
23310;SDS011;11828;51.508;18.118;2022-08-03T06:47:37;17.85;;;15.45;;
23310;SDS011;11828;51.508;18.118;2022-08-03T06:50:04;15.68;;;13.73;;
23310;SDS011;11828;51.508;18.118;2022-08-03T06:52:31;15.07;;;13.57;;
23310;SDS011;11828;51.508;18.118;2022-08-03T06:54:58;17.20;;;15.40;;
23310;SDS011;11828;51.508;18.118;2022-08-03T06:57:24;20.48;;;14.77;;
23310;SDS011;11828;51.508;18.118;2022-08-03T06:59:50;18.08;;;15.70;;
23310;SDS011;11828;51.508;18.118;2022-08-03T07:02:16;16.92;;;15.13;;
23310;SDS011;11828;51.508;18.118;2022-08-03T07:04:49;13.90;;;12.50;;
23310;SDS011;11828;51.508;18.118;2022-08-03T07:07:15;18.63;;;15.05;;
23310;SDS011;11828;51.508;18.118;2022-08-03T07:09:41;15.07;;;13.63;;
23310;SDS011;11828;51.508;18.118;2022-08-03T07:12:07;16.65;;;14.73;;
23310;SDS011;11828;51.508;18.118;2022-08-03T07:14:33;15.75;;;13.98;;
23310;SDS011;11828;51.508;18.118;2022-08-03T07:16:59;16.90;;;15.20;;
23310;SDS011;11828;51.508;18.118;2022-08-03T07:19:26;16.42;;;14.73;;
23310;SDS011;11828;51.508;18.118;2022-08-03T07:21:51;16.08;;;14.38;;
23310;SDS011;11828;51.508;18.118;2022-08-03T07:24:17;15.55;;;13.93;;
23310;SDS011;11828;51.508;18.118;2022-08-03T07:26:44;15.07;;;13.38;;
23310;SDS011;11828;51.508;18.118;2022-08-03T07:29:09;15.63;;;13.93;;
23310;SDS011;11828;51.508;18.118;2022-08-03T07:31:35;16.17;;;13.80;;
23310;SDS011;11828;51.508;18.118;2022-08-03T07:34:03;15.50;;;13.90;;
23310;SDS011;11828;51.508;18.118;2022-08-03T07:36:29;15.20;;;13.60;;
23310;SDS011;11828;51.508;18.118;2022-08-03T07:38:56;14.35;;;12.82;;
23310;SDS011;11828;51.508;18.118;2022-08-03T07:41:23;14.45;;;13.05;;
23310;SDS011;11828;51.508;18.118;2022-08-03T07:43:49;12.52;;;11.32;;
23310;SDS011;11828;51.508;18.118;2022-08-03T07:46:14;12.25;;;11.05;;
23310;SDS011;11828;51.508;18.118;2022-08-03T07:48:41;13.80;;;11.77;;
23310;SDS011;11828;51.508;18.118;2022-08-03T07:51:07;11.45;;;10.20;;
23310;SDS011;11828;51.508;18.118;2022-08-03T07:53:32;14.45;;;11.05;;
23310;SDS011;11828;51.508;18.118;2022-08-03T07:55:59;11.90;;;10.60;;
23310;SDS011;11828;51.508;18.118;2022-08-03T07:58:24;9.80;;;8.80;;
23310;SDS011;11828;51.508;18.118;2022-08-03T08:00:50;9.57;;;8.60;;
23310;SDS011;11828;51.508;18.118;2022-08-03T08:03:17;12.38;;;10.25;;
23310;SDS011;11828;51.508;18.118;2022-08-03T08:05:46;11.50;;;9.40;;
23310;SDS011;11828;51.508;18.118;2022-08-03T08:08:12;9.48;;;8.25;;
23310;SDS011;11828;51.508;18.118;2022-08-03T08:10:38;9.75;;;8.75;;
23310;SDS011;11828;51.508;18.118;2022-08-03T08:13:04;9.20;;;8.20;;
23310;SDS011;11828;51.508;18.118;2022-08-03T08:15:30;9.43;;;8.35;;
23310;SDS011;11828;51.508;18.118;2022-08-03T08:17:59;9.90;;;8.90;;
23310;SDS011;11828;51.508;18.118;2022-08-03T08:20:28;10.20;;;8.88;;
23310;SDS011;11828;51.508;18.118;2022-08-03T08:23:00;9.60;;;8.25;;
23310;SDS011;11828;51.508;18.118;2022-08-03T08:25:30;9.45;;;8.55;;
23310;SDS011;11828;51.508;18.118;2022-08-03T08:27:57;9.32;;;8.52;;
23310;SDS011;11828;51.508;18.118;2022-08-03T08:30:26;9.20;;;8.32;;
23310;SDS011;11828;51.508;18.118;2022-08-03T08:32:53;9.77;;;8.80;;
23310;SDS011;11828;51.508;18.118;2022-08-03T08:35:19;8.90;;;8.07;;
23310;SDS011;11828;51.508;18.118;2022-08-03T08:37:45;9.30;;;8.40;;
23310;SDS011;11828;51.508;18.118;2022-08-03T08:40:12;9.20;;;8.25;;
23310;SDS011;11828;51.508;18.118;2022-08-03T08:42:39;8.90;;;7.68;;
23310;SDS011;11828;51.508;18.118;2022-08-03T08:45:06;11.63;;;9.43;;
23310;SDS011;11828;51.508;18.118;2022-08-03T08:47:35;26.30;;;17.15;;
23310;SDS011;11828;51.508;18.118;2022-08-03T08:50:05;11.60;;;9.95;;
23310;SDS011;11828;51.508;18.118;2022-08-03T08:52:33;7.00;;;6.30;;
23310;SDS011;11828;51.508;18.118;2022-08-03T08:55:04;6.30;;;5.60;;
23310;SDS011;11828;51.508;18.118;2022-08-03T08:57:33;5.65;;;5.15;;
23310;SDS011;11828;51.508;18.118;2022-08-03T09:00:08;8.80;;;7.90;;
23310;SDS011;11828;51.508;18.118;2022-08-03T09:02:38;6.65;;;6.05;;
23310;SDS011;11828;51.508;18.118;2022-08-03T09:05:15;5.68;;;5.18;;
23310;SDS011;11828;51.508;18.118;2022-08-03T09:07:44;5.60;;;5.03;;
23310;SDS011;11828;51.508;18.118;2022-08-03T09:10:12;4.78;;;4.25;;
23310;SDS011;11828;51.508;18.118;2022-08-03T09:12:48;5.40;;;5.00;;
23310;SDS011;11828;51.508;18.118;2022-08-03T09:17:47;5.65;;;5.15;;
23310;SDS011;11828;51.508;18.118;2022-08-03T09:20:14;4.88;;;4.47;;
23310;SDS011;11828;51.508;18.118;2022-08-03T09:22:55;5.20;;;4.80;;
23310;SDS011;11828;51.508;18.118;2022-08-03T09:25:46;6.22;;;5.55;;
23310;SDS011;11828;51.508;18.118;2022-08-03T09:28:14;5.50;;;4.10;;
23310;SDS011;11828;51.508;18.118;2022-08-03T09:30:42;5.13;;;3.83;;
23310;SDS011;11828;51.508;18.118;2022-08-03T09:33:11;5.00;;;4.50;;
23310;SDS011;11828;51.508;18.118;2022-08-03T09:35:44;4.82;;;4.43;;
23310;SDS011;11828;51.508;18.118;2022-08-03T09:38:14;5.07;;;4.65;;
23310;SDS011;11828;51.508;18.118;2022-08-03T09:40:50;5.72;;;3.95;;
23310;SDS011;11828;51.508;18.118;2022-08-03T09:43:19;4.07;;;3.78;;
23310;SDS011;11828;51.508;18.118;2022-08-03T09:45:46;17.38;;;12.82;;
23310;SDS011;11828;51.508;18.118;2022-08-03T09:48:25;34.63;;;20.98;;
23310;SDS011;11828;51.508;18.118;2022-08-03T09:50:57;31.77;;;22.75;;
23310;SDS011;11828;51.508;18.118;2022-08-03T09:53:28;9.00;;;7.68;;
23310;SDS011;11828;51.508;18.118;2022-08-03T09:55:58;6.70;;;5.68;;
23310;SDS011;11828;51.508;18.118;2022-08-03T09:58:28;4.75;;;4.32;;
23310;SDS011;11828;51.508;18.118;2022-08-03T10:00:59;4.20;;;3.90;;
23310;SDS011;11828;51.508;18.118;2022-08-03T10:03:28;4.25;;;3.92;;
23310;SDS011;11828;51.508;18.118;2022-08-03T10:06:19;4.20;;;3.80;;
23310;SDS011;11828;51.508;18.118;2022-08-03T10:08:47;3.80;;;3.50;;
23310;SDS011;11828;51.508;18.118;2022-08-03T10:11:40;4.38;;;3.97;;
23310;SDS011;11828;51.508;18.118;2022-08-03T10:14:09;3.70;;;3.40;;
23310;SDS011;11828;51.508;18.118;2022-08-03T10:16:43;4.30;;;4.00;;
23310;SDS011;11828;51.508;18.118;2022-08-03T10:19:11;3.90;;;3.60;;
23310;SDS011;11828;51.508;18.118;2022-08-03T10:21:39;4.18;;;3.88;;
23310;SDS011;11828;51.508;18.118;2022-08-03T10:24:25;3.90;;;3.55;;
23310;SDS011;11828;51.508;18.118;2022-08-03T10:27:02;3.88;;;3.58;;
23310;SDS011;11828;51.508;18.118;2022-08-03T10:29:42;3.90;;;3.60;;
23310;SDS011;11828;51.508;18.118;2022-08-03T10:32:13;4.15;;;3.80;;
23310;SDS011;11828;51.508;18.118;2022-08-03T10:34:46;3.47;;;3.17;;
23310;SDS011;11828;51.508;18.118;2022-08-03T10:37:16;4.50;;;3.90;;
23310;SDS011;11828;51.508;18.118;2022-08-03T10:39:44;3.80;;;3.28;;
23310;SDS011;11828;51.508;18.118;2022-08-03T10:42:23;3.20;;;3.00;;
23310;SDS011;11828;51.508;18.118;2022-08-03T10:44:55;3.65;;;3.35;;
23310;SDS011;11828;51.508;18.118;2022-08-03T10:47:31;3.55;;;3.25;;
23310;SDS011;11828;51.508;18.118;2022-08-03T10:49:58;3.28;;;2.97;;
23310;SDS011;11828;51.508;18.118;2022-08-03T10:52:25;4.03;;;3.00;;
23310;SDS011;11828;51.508;18.118;2022-08-03T10:54:52;3.55;;;3.20;;
23310;SDS011;11828;51.508;18.118;2022-08-03T10:57:46;3.40;;;3.10;;
23310;SDS011;11828;51.508;18.118;2022-08-03T11:00:21;4.20;;;3.80;;
23310;SDS011;11828;51.508;18.118;2022-08-03T11:03:06;3.78;;;3.47;;
23310;SDS011;11828;51.508;18.118;2022-08-03T11:05:39;3.88;;;3.58;;
23310;SDS011;11828;51.508;18.118;2022-08-03T11:10:59;4.32;;;3.50;;
23310;SDS011;11828;51.508;18.118;2022-08-03T11:13:56;3.75;;;3.42;;
23310;SDS011;11828;51.508;18.118;2022-08-03T11:16:22;3.35;;;3.05;;
23310;SDS011;11828;51.508;18.118;2022-08-03T11:18:58;3.15;;;2.95;;
23310;SDS011;11828;51.508;18.118;2022-08-03T11:30:04;3.00;;;2.80;;
23310;SDS011;11828;51.508;18.118;2022-08-03T11:37:32;3.10;;;2.90;;
23310;SDS011;11828;51.508;18.118;2022-08-03T11:39:59;4.60;;;3.20;;
23310;SDS011;11828;51.508;18.118;2022-08-03T11:44:54;3.97;;;3.67;;
23310;SDS011;11828;51.508;18.118;2022-08-03T11:47:23;9.07;;;3.47;;
23310;SDS011;11828;51.508;18.118;2022-08-03T11:49:54;3.10;;;2.80;;
23310;SDS011;11828;51.508;18.118;2022-08-03T11:52:26;4.20;;;3.80;;
23310;SDS011;11828;51.508;18.118;2022-08-03T11:54:58;3.60;;;3.30;;
23310;SDS011;11828;51.508;18.118;2022-08-03T11:57:28;3.85;;;3.47;;
23310;SDS011;11828;51.508;18.118;2022-08-03T11:59:56;3.00;;;2.80;;
23310;SDS011;11828;51.508;18.118;2022-08-03T12:02:22;3.33;;;3.05;;
23310;SDS011;11828;51.508;18.118;2022-08-03T12:04:52;3.55;;;3.20;;
23310;SDS011;11828;51.508;18.118;2022-08-03T12:07:26;2.92;;;2.72;;
23310;SDS011;11828;51.508;18.118;2022-08-03T12:10:10;3.25;;;2.97;;
23310;SDS011;11828;51.508;18.118;2022-08-03T12:12:39;4.00;;;3.70;;
23310;SDS011;11828;51.508;18.118;2022-08-03T12:15:07;4.95;;;3.47;;
23310;SDS011;11828;51.508;18.118;2022-08-03T12:17:34;3.80;;;3.50;;
23310;SDS011;11828;51.508;18.118;2022-08-03T12:20:03;3.40;;;3.10;;
23310;SDS011;11828;51.508;18.118;2022-08-03T12:22:38;3.80;;;3.50;;
23310;SDS011;11828;51.508;18.118;2022-08-03T12:25:05;4.50;;;3.03;;
23310;SDS011;11828;51.508;18.118;2022-08-03T12:27:33;4.00;;;3.60;;
23310;SDS011;11828;51.508;18.118;2022-08-03T12:30:00;3.30;;;2.95;;
23310;SDS011;11828;51.508;18.118;2022-08-03T12:32:27;3.08;;;2.78;;
23310;SDS011;11828;51.508;18.118;2022-08-03T12:34:54;3.25;;;3.05;;
23310;SDS011;11828;51.508;18.118;2022-08-03T12:37:24;3.53;;;3.05;;
23310;SDS011;11828;51.508;18.118;2022-08-03T12:39:54;3.90;;;3.33;;
23310;SDS011;11828;51.508;18.118;2022-08-03T12:42:35;3.72;;;3.42;;
23310;SDS011;11828;51.508;18.118;2022-08-03T12:47:57;4.22;;;3.72;;
23310;SDS011;11828;51.508;18.118;2022-08-03T12:50:26;3.45;;;3.15;;
23310;SDS011;11828;51.508;18.118;2022-08-03T12:52:58;3.20;;;2.95;;
23310;SDS011;11828;51.508;18.118;2022-08-03T12:55:26;3.03;;;2.83;;
23310;SDS011;11828;51.508;18.118;2022-08-03T12:57:58;3.75;;;3.45;;
23310;SDS011;11828;51.508;18.118;2022-08-03T13:00:25;3.13;;;2.92;;
23310;SDS011;11828;51.508;18.118;2022-08-03T13:03:00;3.00;;;2.80;;
23310;SDS011;11828;51.508;18.118;2022-08-03T13:05:43;4.88;;;4.40;;
23310;SDS011;11828;51.508;18.118;2022-08-03T13:08:19;5.35;;;4.13;;
23310;SDS011;11828;51.508;18.118;2022-08-03T13:10:48;3.00;;;2.80;;
23310;SDS011;11828;51.508;18.118;2022-08-03T13:13:15;4.10;;;3.70;;
23310;SDS011;11828;51.508;18.118;2022-08-03T13:15:41;3.45;;;3.15;;
23310;SDS011;11828;51.508;18.118;2022-08-03T13:18:07;3.90;;;3.50;;
23310;SDS011;11828;51.508;18.118;2022-08-03T13:20:33;3.50;;;3.20;;
23310;SDS011;11828;51.508;18.118;2022-08-03T13:23:00;3.20;;;2.90;;
23310;SDS011;11828;51.508;18.118;2022-08-03T13:25:26;3.35;;;3.05;;
23310;SDS011;11828;51.508;18.118;2022-08-03T13:27:52;3.45;;;3.15;;
23310;SDS011;11828;51.508;18.118;2022-08-03T13:30:18;3.45;;;3.15;;
23310;SDS011;11828;51.508;18.118;2022-08-03T13:35:29;3.58;;;3.28;;
23310;SDS011;11828;51.508;18.118;2022-08-03T13:37:55;3.60;;;3.30;;
23310;SDS011;11828;51.508;18.118;2022-08-03T13:40:21;3.17;;;2.78;;
23310;SDS011;11828;51.508;18.118;2022-08-03T13:42:47;3.80;;;3.50;;
23310;SDS011;11828;51.508;18.118;2022-08-03T13:45:13;5.43;;;4.10;;
23310;SDS011;11828;51.508;18.118;2022-08-03T13:47:40;3.50;;;3.20;;
23310;SDS011;11828;51.508;18.118;2022-08-03T13:50:06;3.30;;;3.00;;
23310;SDS011;11828;51.508;18.118;2022-08-03T13:52:32;3.63;;;3.33;;
23310;SDS011;11828;51.508;18.118;2022-08-03T13:55:00;3.30;;;3.00;;
23310;SDS011;11828;51.508;18.118;2022-08-03T13:57:28;3.03;;;2.83;;
23310;SDS011;11828;51.508;18.118;2022-08-03T13:59:55;2.53;;;2.33;;
23310;SDS011;11828;51.508;18.118;2022-08-03T14:02:21;2.80;;;2.60;;
23310;SDS011;11828;51.508;18.118;2022-08-03T14:04:47;3.40;;;3.10;;
23310;SDS011;11828;51.508;18.118;2022-08-03T14:07:13;2.70;;;2.50;;
23310;SDS011;11828;51.508;18.118;2022-08-03T14:09:39;3.78;;;2.58;;
23310;SDS011;11828;51.508;18.118;2022-08-03T14:12:06;3.88;;;2.35;;
23310;SDS011;11828;51.508;18.118;2022-08-03T14:14:32;4.47;;;2.75;;
23310;SDS011;11828;51.508;18.118;2022-08-03T14:16:58;3.20;;;2.50;;
23310;SDS011;11828;51.508;18.118;2022-08-03T14:19:24;2.53;;;2.33;;
23310;SDS011;11828;51.508;18.118;2022-08-03T14:21:50;2.47;;;2.33;;
23310;SDS011;11828;51.508;18.118;2022-08-03T14:24:16;2.67;;;2.47;;
23310;SDS011;11828;51.508;18.118;2022-08-03T14:26:42;2.80;;;2.60;;
23310;SDS011;11828;51.508;18.118;2022-08-03T14:29:08;2.90;;;2.70;;
23310;SDS011;11828;51.508;18.118;2022-08-03T14:31:35;2.65;;;2.45;;
23310;SDS011;11828;51.508;18.118;2022-08-03T14:34:01;2.78;;;2.58;;
23310;SDS011;11828;51.508;18.118;2022-08-03T14:36:28;2.70;;;2.50;;
23310;SDS011;11828;51.508;18.118;2022-08-03T14:38:54;2.97;;;2.58;;
23310;SDS011;11828;51.508;18.118;2022-08-03T14:41:20;2.80;;;2.60;;
23310;SDS011;11828;51.508;18.118;2022-08-03T14:43:46;2.40;;;2.20;;
23310;SDS011;11828;51.508;18.118;2022-08-03T14:46:12;2.67;;;2.40;;
23310;SDS011;11828;51.508;18.118;2022-08-03T14:48:38;2.88;;;2.55;;
23310;SDS011;11828;51.508;18.118;2022-08-03T14:51:05;3.15;;;2.17;;
23310;SDS011;11828;51.508;18.118;2022-08-03T14:53:31;3.13;;;2.83;;
23310;SDS011;11828;51.508;18.118;2022-08-03T14:55:58;2.67;;;2.47;;
23310;SDS011;11828;51.508;18.118;2022-08-03T14:58:24;2.97;;;2.50;;
23310;SDS011;11828;51.508;18.118;2022-08-03T15:00:51;2.60;;;2.40;;
23310;SDS011;11828;51.508;18.118;2022-08-03T15:03:20;2.97;;;2.78;;
23310;SDS011;11828;51.508;18.118;2022-08-03T15:05:50;2.90;;;2.60;;
23310;SDS011;11828;51.508;18.118;2022-08-03T15:08:17;2.55;;;2.35;;
23310;SDS011;11828;51.508;18.118;2022-08-03T15:10:43;4.32;;;2.70;;
23310;SDS011;11828;51.508;18.118;2022-08-03T15:13:09;3.60;;;3.30;;
23310;SDS011;11828;51.508;18.118;2022-08-03T15:15:36;3.38;;;3.08;;
23310;SDS011;11828;51.508;18.118;2022-08-03T15:18:02;3.40;;;3.10;;
23310;SDS011;11828;51.508;18.118;2022-08-03T15:20:29;4.15;;;2.97;;